Time;durP1;ratioP1;P1;durP2;ratioP2;P2;SDS_P1;SDS_P2;PMS_P1;PMS_P2;Temp;Humidity;BMP_temperature;BMP_pressure;BME280_temperature;BME280_humidity;BME280_pressure;Samples;Min_cycle;Max_cycle;Signal;HPM_P1;HPM_P2
2023/05/29 00:00:40;;;;;;;22.20;7.50;;;;;;;7.41;53.62;100045.78;1760798;79;21049;-66
2023/05/29 00:03:09;;;;;;;11.38;7.00;;;;;;;7.38;53.69;100041.52;1755141;79;21017;-66
2023/05/29 00:05:36;;;;;;;14.58;8.00;;;;;;;7.34;53.88;100039.92;1754635;79;21660;-64
2023/05/29 00:08:02;;;;;;;11.48;7.35;;;;;;;7.35;54.01;100045.52;1750450;79;21010;-66
2023/05/29 00:10:31;;;;;;;15.55;8.10;;;;;;;7.32;53.95;100049.50;1755816;80;21070;-67
2023/05/29 00:13:01;;;;;;;13.93;7.62;;;;;;;7.30;54.22;100050.44;1753631;79;21010;-63
2023/05/29 00:15:26;;;;;;;16.35;8.15;;;;;;;7.32;54.34;100052.09;1762398;78;21019;-64
2023/05/29 00:17:53;;;;;;;17.42;8.15;;;;;;;7.28;54.41;100045.30;1764555;79;21091;-66
2023/05/29 00:20:19;;;;;;;15.70;7.67;;;;;;;7.26;54.65;100047.08;1758095;79;21023;-65
2023/05/29 00:22:47;;;;;;;16.23;6.53;;;;;;;7.22;54.58;100051.94;1756414;79;21496;-65
2023/05/29 00:25:15;;;;;;;17.80;7.30;;;;;;;7.18;54.59;100051.64;1753975;80;21028;-64
2023/05/29 00:27:44;;;;;;;12.95;7.20;;;;;;;7.17;54.81;100047.35;1756077;79;20998;-64
2023/05/29 00:30:19;;;;;;;16.73;7.47;;;;;;;7.20;54.92;100052.45;1729726;79;21304;-64
2023/05/29 00:32:46;;;;;;;16.73;6.92;;;;;;;7.16;55.02;100043.03;1713656;81;21025;-64
2023/05/29 00:35:11;;;;;;;12.18;6.90;;;;;;;7.20;55.11;100053.75;1711501;82;21339;-65
2023/05/29 00:37:38;;;;;;;14.50;7.78;;;;;;;7.17;55.28;100051.25;1722010;82;21033;-64
2023/05/29 00:40:06;;;;;;;16.95;8.28;;;;;;;7.16;55.38;100053.42;1712032;82;21438;-66
2023/05/29 00:42:32;;;;;;;13.48;6.37;;;;;;;7.11;55.36;100051.39;1712810;81;20986;-64
2023/05/29 00:44:58;;;;;;;15.63;7.72;;;;;;;7.08;55.37;100063.16;1710898;82;21006;-66
2023/05/29 00:47:26;;;;;;;11.88;6.28;;;;;;;7.01;55.60;100061.64;1710254;82;21101;-66
2023/05/29 00:49:53;;;;;;;14.23;7.28;;;;;;;6.97;55.75;100065.20;1714880;81;21094;-66
2023/05/29 00:52:20;;;;;;;16.30;7.62;;;;;;;6.97;55.89;100060.01;1715720;82;20979;-66
2023/05/29 00:54:47;;;;;;;12.82;7.33;;;;;;;6.91;55.97;100059.27;1712710;81;20999;-65
2023/05/29 00:57:16;;;;;;;17.32;7.78;;;;;;;6.90;56.15;100053.69;1716140;82;20979;-66
2023/05/29 00:59:43;;;;;;;13.40;7.30;;;;;;;6.90;56.24;100062.77;1716287;82;21279;-66
2023/05/29 01:02:10;;;;;;;16.15;7.25;;;;;;;6.88;56.38;100059.36;1713339;82;20967;-65
2023/05/29 01:04:39;;;;;;;12.50;6.55;;;;;;;6.86;56.33;100054.68;1715863;82;21053;-66
2023/05/29 01:07:06;;;;;;;10.10;6.12;;;;;;;6.83;56.31;100058.63;1715438;81;21030;-66
2023/05/29 01:09:37;;;;;;;9.90;5.47;;;;;;;6.79;56.31;100066.55;1715587;82;20995;-66
2023/05/29 01:12:18;;;;;;;15.78;6.78;;;;;;;6.75;56.39;100067.09;1710345;83;21014;-66
2023/05/29 01:14:54;;;;;;;12.82;6.08;;;;;;;6.77;56.88;100057.49;1712104;82;21069;-65
2023/05/29 01:17:26;;;;;;;10.72;6.53;;;;;;;6.75;56.76;100061.90;1710127;82;21545;-66
2023/05/29 01:20:04;;;;;;;15.10;7.33;;;;;;;6.75;56.96;100065.79;1716869;81;21014;-66
2023/05/29 01:22:37;;;;;;;10.75;6.25;;;;;;;6.77;57.13;100069.17;1712417;81;21109;-66
2023/05/29 01:25:18;;;;;;;10.75;6.10;;;;;;;6.80;57.01;100074.28;1713748;82;20955;-63
2023/05/29 01:27:47;;;;;;;13.50;6.10;;;;;;;6.75;57.13;100070.11;1711719;82;20995;-66
2023/05/29 01:30:22;;;;;;;13.03;6.60;;;;;;;6.81;57.54;100060.44;1718957;81;21679;-66
2023/05/29 01:32:51;;;;;;;11.70;6.12;;;;;;;6.80;57.28;100073.44;1713097;81;21006;-66
2023/05/29 01:35:17;;;;;;;12.03;5.85;;;;;;;6.78;57.67;100060.52;1712943;81;21088;-66
2023/05/29 01:37:43;;;;;;;12.10;6.97;;;;;;;6.81;57.41;100060.44;1723777;81;21033;-66
2023/05/29 01:40:10;;;;;;;11.40;6.70;;;;;;;6.74;57.37;100067.95;1720197;82;20932;-66
2023/05/29 01:42:37;;;;;;;18.25;6.15;;;;;;;6.70;57.46;100068.49;1720808;81;21038;-66
2023/05/29 01:45:06;;;;;;;11.00;6.00;;;;;;;6.62;57.47;100065.69;1716305;81;21250;-66
2023/05/29 01:47:34;;;;;;;13.00;5.67;;;;;;;6.53;57.71;100072.42;1716218;81;21649;-64
2023/05/29 01:50:03;;;;;;;13.38;6.33;;;;;;;6.48;58.19;100077.71;1718543;81;21013;-66
2023/05/29 01:52:29;;;;;;;12.30;5.58;;;;;;;6.43;58.21;100069.19;1718626;82;21566;-66
2023/05/29 01:54:55;;;;;;;11.70;5.72;;;;;;;6.41;58.34;100070.95;1716988;82;21544;-66
2023/05/29 01:57:22;;;;;;;8.63;5.80;;;;;;;6.35;58.25;100074.55;1717180;81;21068;-65
2023/05/29 01:59:49;;;;;;;15.00;6.58;;;;;;;6.32;58.38;100077.22;1719526;81;20990;-65
2023/05/29 02:02:16;;;;;;;9.80;5.62;;;;;;;6.31;58.53;100072.94;1714331;82;20943;-66
2023/05/29 02:04:42;;;;;;;11.85;6.10;;;;;;;6.38;58.62;100074.47;1716774;81;20987;-66
2023/05/29 02:07:08;;;;;;;10.10;6.17;;;;;;;6.43;58.72;100076.52;1717922;82;21002;-66
2023/05/29 02:09:36;;;;;;;10.45;6.00;;;;;;;6.42;58.75;100073.53;1715836;81;21025;-66
2023/05/29 02:12:02;;;;;;;11.00;5.78;;;;;;;6.41;58.84;100080.91;1714253;82;20941;-66
2023/05/29 02:14:28;;;;;;;15.15;6.90;;;;;;;6.38;58.81;100078.36;1717806;81;21679;-66
2023/05/29 02:16:57;;;;;;;16.67;6.60;;;;;;;6.29;58.87;100077.30;1721767;82;21021;-66
2023/05/29 02:19:25;;;;;;;12.60;6.45;;;;;;;6.23;59.03;100080.05;1720397;82;21065;-66
2023/05/29 02:21:51;;;;;;;9.58;5.58;;;;;;;6.18;59.28;100076.70;1721012;81;21049;-66
2023/05/29 02:24:18;;;;;;;20.52;5.62;;;;;;;6.20;59.55;100072.34;1715778;82;20950;-65
2023/05/29 02:26:44;;;;;;;12.15;6.10;;;;;;;6.16;59.67;100075.88;1718633;81;20990;-66
2023/05/29 02:29:10;;;;;;;11.60;6.80;;;;;;;6.15;59.70;100075.48;1723652;80;21026;-66
2023/05/29 02:31:39;;;;;;;11.75;6.53;;;;;;;6.16;59.61;100077.17;1756533;79;21054;-66
2023/05/29 02:34:05;;;;;;;13.15;6.83;;;;;;;6.15;59.75;100074.19;1756786;78;20928;-66
2023/05/29 02:36:32;;;;;;;13.68;6.50;;;;;;;6.17;59.80;100075.02;1759648;79;21194;-65
2023/05/29 02:38:58;;;;;;;15.30;6.92;;;;;;;6.18;59.87;100080.59;1759209;79;21015;-66
2023/05/29 02:41:25;;;;;;;11.15;6.40;;;;;;;6.20;60.01;100080.97;1758284;79;21823;-66
2023/05/29 02:43:51;;;;;;;11.55;5.92;;;;;;;6.25;60.19;100073.94;1757165;79;21046;-66
2023/05/29 02:46:18;;;;;;;11.00;5.80;;;;;;;6.29;60.20;100078.59;1752262;79;21467;-64
2023/05/29 02:48:44;;;;;;;12.35;7.30;;;;;;;6.32;60.13;100079.81;1759637;80;20962;-66
2023/05/29 02:51:10;;;;;;;8.20;5.97;;;;;;;6.30;60.14;100071.21;1760183;80;21039;-66
2023/05/29 02:53:37;;;;;;;11.53;6.25;;;;;;;6.31;60.32;100067.75;1758119;79;20967;-66
2023/05/29 02:56:04;;;;;;;13.38;6.55;;;;;;;6.34;60.43;100061.64;1755748;79;21651;-65
2023/05/29 02:58:30;;;;;;;16.25;6.97;;;;;;;6.42;60.63;100064.45;1755933;79;21014;-66
2023/05/29 03:00:56;;;;;;;14.33;5.85;;;;;;;6.47;60.52;100058.70;1758632;79;20921;-66
2023/05/29 03:03:22;;;;;;;12.85;6.30;;;;;;;6.49;60.51;100053.46;1755978;79;21022;-64
2023/05/29 03:05:48;;;;;;;11.43;5.75;;;;;;;6.53;60.50;100055.56;1757483;80;21213;-65
2023/05/29 03:08:15;;;;;;;18.48;7.10;;;;;;;6.53;60.63;100062.05;1752210;79;21126;-64
2023/05/29 03:10:41;;;;;;;10.00;6.60;;;;;;;6.53;60.61;100059.45;1751160;79;21023;-66
2023/05/29 03:13:07;;;;;;;11.78;6.08;;;;;;;6.54;60.56;100058.09;1758530;80;20940;-66
2023/05/29 03:15:33;;;;;;;9.63;5.97;;;;;;;6.59;60.77;100056.69;1759652;79;21021;-65
2023/05/29 03:17:59;;;;;;;13.88;6.55;;;;;;;6.64;60.92;100056.13;1757222;80;21494;-66
2023/05/29 03:20:26;;;;;;;14.07;6.25;;;;;;;6.73;61.23;100055.89;1755709;78;21246;-66
2023/05/29 03:22:52;;;;;;;12.65;6.67;;;;;;;6.76;61.13;100054.50;1758138;79;21555;-66
2023/05/29 03:25:20;;;;;;;10.50;5.87;;;;;;;6.82;61.42;100049.15;1759367;79;21080;-64
2023/05/29 03:27:46;;;;;;;12.45;6.25;;;;;;;6.90;61.41;100054.98;1762613;79;21658;-66
2023/05/29 03:30:13;;;;;;;16.02;6.20;;;;;;;7.00;61.49;100053.02;1755939;79;21632;-66
2023/05/29 03:32:40;;;;;;;20.10;7.65;;;;;;;7.08;61.63;100052.78;1770463;79;20960;-66
2023/05/29 03:35:07;;;;;;;21.80;7.60;;;;;;;7.21;61.72;100046.36;1762427;79;21010;-64
2023/05/29 03:37:33;;;;;;;12.55;7.20;;;;;;;7.32;61.75;100057.29;1755720;79;21551;-65
2023/05/29 03:40:00;;;;;;;19.32;6.85;;;;;;;7.37;61.77;100058.02;1760704;79;21023;-66
2023/05/29 03:42:26;;;;;;;29.60;8.88;;;;;;;7.48;61.86;100064.63;1756455;79;21481;-66
2023/05/29 03:44:52;;;;;;;21.20;6.97;;;;;;;7.60;61.98;100069.48;1757477;79;21094;-66
2023/05/29 03:47:18;;;;;;;18.82;6.80;;;;;;;7.72;62.07;100064.36;1752754;79;20992;-65
2023/05/29 03:49:45;;;;;;;13.48;6.10;;;;;;;7.85;62.15;100057.45;1766823;79;20973;-66
2023/05/29 03:52:11;;;;;;;11.75;5.40;;;;;;;8.00;62.28;100061.31;1753360;79;20970;-66
2023/05/29 03:54:37;;;;;;;12.90;5.70;;;;;;;8.13;62.21;100060.49;1762449;79;20917;-66
2023/05/29 03:57:04;;;;;;;15.90;6.30;;;;;;;8.29;62.54;100059.56;1762301;79;21051;-65
2023/05/29 03:59:34;;;;;;;15.83;7.42;;;;;;;8.46;62.46;100069.45;1760472;79;20944;-66
2023/05/29 04:01:58;;;;;;;17.87;7.03;;;;;;;8.65;62.59;100067.91;1760320;78;21027;-66
2023/05/29 04:04:25;;;;;;;12.23;6.20;;;;;;;8.86;62.75;100066.79;1761964;79;21003;-66
2023/05/29 04:06:51;;;;;;;15.08;5.62;;;;;;;9.04;62.72;100062.22;1760640;79;20945;-65
2023/05/29 04:09:18;;;;;;;8.20;5.40;;;;;;;9.26;63.06;100064.06;1753277;79;21449;-66
2023/05/29 04:11:44;;;;;;;9.95;4.53;;;;;;;9.47;62.97;100058.08;1756359;79;20957;-66
2023/05/29 04:14:11;;;;;;;14.38;5.42;;;;;;;9.68;63.13;100058.16;1764263;79;21009;-66
2023/05/29 04:16:38;;;;;;;15.23;5.70;;;;;;;9.90;63.25;100060.34;1756316;79;21092;-66
2023/05/29 04:19:04;;;;;;;9.15;4.17;;;;;;;10.19;63.28;100057.02;1761910;79;21011;-66
2023/05/29 04:21:32;;;;;;;8.13;3.72;;;;;;;10.50;63.44;100052.30;1758179;79;21085;-67
2023/05/29 04:23:59;;;;;;;8.63;3.98;;;;;;;10.83;63.51;100051.77;1752823;79;20998;-66
2023/05/29 04:26:25;;;;;;;20.92;4.95;;;;;;;11.13;63.42;100052.66;1761035;79;21003;-67
2023/05/29 04:28:57;;;;;;;13.55;5.00;;;;;;;11.38;63.36;100057.17;1758863;79;20932;-67
2023/05/29 04:31:22;;;;;;;24.77;4.28;;;;;;;11.86;63.26;100061.09;1753333;79;20979;-66
2023/05/29 04:33:49;;;;;;;14.10;3.92;;;;;;;11.86;63.26;100061.09;1751581;79;21035;-65
2023/05/29 04:36:16;;;;;;;9.63;4.07;;;;;;;11.97;62.88;100057.97;1753520;79;20986;-66
2023/05/29 04:38:44;;;;;;;9.35;3.95;;;;;;;12.08;63.15;100054.84;1752425;79;21197;-66
2023/05/29 04:41:11;;;;;;;13.68;4.12;;;;;;;12.26;63.28;100056.55;1753845;79;21572;-69
2023/05/29 04:43:41;;;;;;;19.80;4.53;;;;;;;12.47;63.30;100057.75;1748203;79;21014;-65
2023/05/29 04:46:12;;;;;;;8.15;2.90;;;;;;;12.81;63.27;100057.36;1749215;79;21362;-68
2023/05/29 04:48:36;;;;;;;9.10;3.17;;;;;;;13.06;63.14;100069.58;1753411;79;22179;-66
2023/05/29 04:51:02;;;;;;;8.23;2.95;;;;;;;13.29;62.79;100064.93;1763823;79;21060;-64
2023/05/29 04:53:30;;;;;;;10.48;3.15;;;;;;;13.45;62.86;100061.88;1758423;79;21014;-65
2023/05/29 04:55:56;;;;;;;17.87;4.65;;;;;;;13.63;62.66;100054.78;1757391;79;21070;-64
2023/05/29 04:58:26;;;;;;;11.83;3.05;;;;;;;13.75;62.74;100059.38;1754517;79;20995;-63
2023/05/29 05:00:52;;;;;;;10.23;3.25;;;;;;;13.85;62.44;100064.95;1755848;80;21020;-69
2023/05/29 05:03:18;;;;;;;9.63;3.08;;;;;;;13.95;62.40;100053.02;1745151;79;21039;-68
2023/05/29 05:05:47;;;;;;;22.58;5.05;;;;;;;14.05;62.55;100051.55;1757076;79;21019;-68
2023/05/29 05:08:15;;;;;;;19.65;3.62;;;;;;;14.10;62.11;100045.57;1759437;79;21078;-67
2023/05/29 05:10:42;;;;;;;30.12;4.58;;;;;;;14.09;62.27;100055.70;1751810;79;20992;-68
2023/05/29 05:13:11;;;;;;;18.75;4.05;;;;;;;14.22;62.30;100052.38;1755622;79;20989;-69
2023/05/29 05:15:37;;;;;;;11.65;3.65;;;;;;;14.41;62.16;100058.27;1754175;79;20960;-69
2023/05/29 05:18:03;;;;;;;19.87;4.50;;;;;;;14.55;61.98;100055.71;1751303;79;21010;-69
2023/05/29 05:20:33;;;;;;;15.83;3.60;;;;;;;14.62;61.69;100056.66;1759532;79;21560;-68
2023/05/29 05:23:03;;;;;;;17.60;3.90;;;;;;;14.66;61.48;100056.88;1735203;79;22309;-69
2023/05/29 05:25:34;;;;;;;13.65;2.72;;;;;;;14.69;61.50;100054.91;1787984;78;21467;-69
2023/05/29 05:28:03;;;;;;;20.70;4.67;;;;;;;14.73;61.27;100054.24;1756676;79;21039;-71
2023/05/29 05:30:29;;;;;;;6.95;2.87;;;;;;;14.68;61.08;100062.89;1759709;79;21657;-66
2023/05/29 05:32:56;;;;;;;9.93;3.13;;;;;;;14.70;61.36;100051.36;1773759;79;21069;-68
2023/05/29 05:35:22;;;;;;;50.60;8.48;;;;;;;14.95;61.48;100053.34;1765775;79;22156;-71
2023/05/29 05:37:51;;;;;;;5.00;2.17;;;;;;;15.23;61.23;100050.36;1768627;79;20963;-69
2023/05/29 05:40:17;;;;;;;6.75;2.60;;;;;;;15.43;60.77;100052.62;1766977;79;21489;-71
2023/05/29 05:42:43;;;;;;;9.40;2.37;;;;;;;15.58;60.51;100052.61;1770646;79;21089;-66
2023/05/29 05:45:12;;;;;;;144.17;8.85;;;;;;;15.70;60.17;100055.80;1769197;79;21062;-66
2023/05/29 05:47:38;;;;;;;9.85;2.30;;;;;;;15.80;60.06;100060.87;1766709;78;20970;-65
2023/05/29 05:50:06;;;;;;;11.28;2.98;;;;;;;15.99;60.01;100055.72;1765285;79;21049;-65
2023/05/29 05:52:33;;;;;;;;;;;;;;;16.19;59.70;100056.62;1774268;79;20916;-65
2023/05/29 05:54:59;;;;;;;8.50;2.30;;;;;;;16.32;59.25;100058.80;1770331;79;20143;-66
2023/05/29 05:57:27;;;;;;;14.18;2.50;;;;;;;16.52;59.32;100064.54;1767973;79;21596;-66
2023/05/29 05:59:53;;;;;;;8.25;1.90;;;;;;;16.69;59.05;100051.10;1766463;79;21683;-66
2023/05/29 06:02:19;;;;;;;29.10;3.22;;;;;;;16.84;58.73;100057.63;1767586;80;21521;-65
2023/05/29 06:04:45;;;;;;;6.47;1.92;;;;;;;16.91;57.57;100056.25;1775590;79;20968;-65
2023/05/29 06:07:12;;;;;;;4.72;1.90;;;;;;;16.88;57.77;100065.69;1768260;79;21018;-66
2023/05/29 06:09:38;;;;;;;4.83;1.90;;;;;;;16.92;57.53;100064.55;1771218;79;20983;-67
2023/05/29 06:12:07;;;;;;;4.83;2.22;;;;;;;16.99;57.14;100063.16;1770908;79;21022;-66
2023/05/29 06:14:33;;;;;;;5.53;1.95;;;;;;;17.04;56.95;100062.86;1772864;79;20982;-67
2023/05/29 06:17:00;;;;;;;27.90;3.83;;;;;;;17.19;56.96;100066.59;1779259;79;21066;-68
2023/05/29 06:19:27;;;;;;;;;;;;;;;17.33;56.76;100070.91;1786316;79;21011;-66
2023/05/29 06:21:53;;;;;;;9.83;2.13;;;;;;;17.51;55.88;100063.52;1775314;79;20131;-67
2023/05/29 06:24:20;;;;;;;6.40;2.37;;;;;;;17.42;55.76;100067.64;1768072;78;20958;-66
2023/05/29 06:26:46;;;;;;;9.58;1.80;;;;;;;17.46;55.45;100068.27;1725518;82;21100;-66
2023/05/29 06:29:12;;;;;;;5.70;2.00;;;;;;;17.48;54.89;100070.33;1766770;79;20979;-67
2023/05/29 06:31:39;;;;;;;5.67;1.75;;;;;;;17.49;54.68;100073.33;1772027;79;21039;-67
2023/05/29 06:34:05;;;;;;;7.97;2.17;;;;;;;17.54;54.59;100075.17;1760895;79;21513;-67
2023/05/29 06:36:32;;;;;;;13.68;2.45;;;;;;;17.63;54.72;100071.88;1769147;79;20976;-68
2023/05/29 06:38:59;;;;;;;8.75;2.12;;;;;;;17.84;54.66;100073.95;1766525;78;20951;-69
2023/05/29 06:41:25;;;;;;;9.75;1.92;;;;;;;18.15;54.36;100070.41;1760719;79;21537;-69
2023/05/29 06:43:51;;;;;;;7.47;2.17;;;;;;;18.37;53.82;100068.36;1765922;79;21088;-68
2023/05/29 06:46:17;;;;;;;5.03;1.87;;;;;;;18.66;54.36;100068.35;1755781;79;21042;-69
2023/05/29 06:48:44;;;;;;;15.85;2.87;;;;;;;18.85;53.09;100075.78;1765481;79;21029;-69
2023/05/29 06:51:11;;;;;;;5.90;1.80;;;;;;;19.08;52.88;100071.84;1767465;79;21135;-70
2023/05/29 06:53:38;;;;;;;4.35;1.57;;;;;;;19.47;53.07;100073.67;1761251;79;21002;-69
2023/05/29 06:56:05;;;;;;;4.37;1.98;;;;;;;20.12;53.25;100074.20;1769863;79;20945;-69
2023/05/29 06:58:32;;;;;;;5.83;1.75;;;;;;;21.20;53.40;100076.21;1757452;79;21028;-69
2023/05/29 07:00:59;;;;;;;6.08;1.82;;;;;;;22.30;52.11;100066.15;1762693;79;21076;-69
2023/05/29 07:03:26;;;;;;;6.20;1.72;;;;;;;22.94;50.49;100065.53;1769789;79;21020;-69
2023/05/29 07:05:53;;;;;;;;;;;;;;;23.56;50.83;100061.90;1762688;79;21045;-69
2023/05/29 07:08:20;;;;;;;3.87;1.35;;;;;;;24.72;50.00;100066.93;1764960;79;20108;-70
2023/05/29 07:10:46;;;;;;;;;;;;;;;25.59;49.88;100070.47;1766170;79;21066;-69
2023/05/29 07:13:15;;;;;;;10.82;2.00;;;;;;;26.31;48.04;100072.70;1765361;79;20172;-70
2023/05/29 07:15:41;;;;;;;6.42;1.80;;;;;;;27.05;46.77;100061.97;1763973;79;21651;-70
2023/05/29 07:18:07;;;;;;;4.33;1.65;;;;;;;27.64;46.74;100065.14;1771758;79;20994;-70
2023/05/29 07:20:33;;;;;;;10.72;2.05;;;;;;;28.33;46.39;100063.41;1727978;81;21053;-70
2023/05/29 07:23:00;;;;;;;6.22;1.47;;;;;;;29.30;45.97;100059.22;1733413;81;21004;-70
2023/05/29 07:25:26;;;;;;;9.40;2.20;;;;;;;30.16;45.12;100054.86;1735301;80;21660;-69
2023/05/29 07:27:52;;;;;;;7.60;2.12;;;;;;;30.84;43.87;100049.94;1704216;82;21038;-70
2023/05/29 07:30:19;;;;;;;7.25;2.25;;;;;;;31.28;42.98;100056.83;1738107;81;21137;-69
2023/05/29 07:32:45;;;;;;;23.87;3.00;;;;;;;31.60;42.22;100062.62;1731989;81;21074;-69
2023/05/29 07:35:11;;;;;;;6.55;2.37;;;;;;;32.08;40.18;100070.70;1720090;81;21029;-69
2023/05/29 07:37:37;;;;;;;7.50;1.82;;;;;;;32.25;40.30;100063.87;1693681;82;20995;-69
2023/05/29 07:40:07;;;;;;;10.35;2.30;;;;;;;32.46;38.66;100066.09;1707989;81;21014;-69
2023/05/29 07:42:34;;;;;;;19.10;3.10;;;;;;;32.52;37.50;100069.34;1727472;81;21002;-67
2023/05/29 07:45:00;;;;;;;11.28;2.50;;;;;;;32.51;36.87;100074.42;1700668;82;21013;-68
2023/05/29 07:47:28;;;;;;;8.23;2.72;;;;;;;32.74;36.12;100076.20;1698517;82;21035;-68
2023/05/29 07:49:54;;;;;;;27.87;3.40;;;;;;;33.03;34.93;100074.11;1701231;82;21102;-68
2023/05/29 07:52:20;;;;;;;;;;;;;;;33.13;34.32;100073.67;1702182;82;20989;-68
2023/05/29 07:54:49;;;;;;;7.50;2.05;;;;;;;33.50;33.01;100077.53;1685539;83;20145;-68
2023/05/29 07:57:15;;;;;;;9.13;2.30;;;;;;;33.88;33.41;100074.05;1688532;83;21038;-67
2023/05/29 07:59:41;;;;;;;;;;;;;;;33.86;32.23;100074.78;1723676;81;21010;-68
2023/05/29 08:02:08;;;;;;;10.55;2.05;;;;;;;33.93;31.12;100076.12;1723448;81;20148;-68
2023/05/29 08:04:36;;;;;;;5.35;1.87;;;;;;;34.02;31.08;100074.28;1722961;82;21140;-68
2023/05/29 08:07:03;;;;;;;8.05;1.72;;;;;;;34.35;28.26;100074.63;1720646;81;21083;-69
2023/05/29 08:09:30;;;;;;;9.85;1.82;;;;;;;34.50;29.43;100072.41;1722291;81;21002;-69
2023/05/29 08:11:56;;;;;;;6.78;1.80;;;;;;;34.89;28.96;100077.22;1721627;81;21084;-68
2023/05/29 08:14:22;;;;;;;6.67;1.92;;;;;;;34.86;27.77;100073.59;1724059;81;21000;-69
2023/05/29 08:16:49;;;;;;;8.98;1.95;;;;;;;35.05;27.99;100073.64;1722630;81;21055;-69
2023/05/29 08:19:15;;;;;;;9.43;2.05;;;;;;;35.59;27.35;100074.74;1723505;81;21009;-69
2023/05/29 08:21:42;;;;;;;14.58;2.25;;;;;;;36.15;26.83;100073.59;1722627;81;20996;-68
2023/05/29 08:24:08;;;;;;;4.42;1.67;;;;;;;36.17;26.30;100074.19;1722375;81;21067;-68
2023/05/29 08:26:35;;;;;;;8.20;1.87;;;;;;;36.60;25.89;100067.67;1720082;81;20998;-68
2023/05/29 08:29:02;;;;;;;9.95;1.90;;;;;;;37.00;25.86;100073.80;1732157;81;20953;-69
2023/05/29 08:31:30;;;;;;;15.13;2.90;;;;;;;37.45;24.98;100074.52;1698103;82;21122;-68
2023/05/29 08:33:57;;;;;;;11.03;2.25;;;;;;;38.08;24.92;100072.78;1702407;82;21026;-67
2023/05/29 08:36:23;;;;;;;27.93;4.72;;;;;;;39.16;22.68;100069.90;1703068;82;20993;-68
2023/05/29 08:38:50;;;;;;;8.38;1.72;;;;;;;38.91;23.10;100073.92;1702621;82;21793;-68
2023/05/29 08:41:29;;;;;;;8.00;1.77;;;;;;;38.90;23.10;100069.52;1688647;82;21046;-68
2023/05/29 08:43:58;;;;;;;5.25;1.72;;;;;;;38.85;22.76;100074.05;1721550;81;20919;-69
2023/05/29 08:46:26;;;;;;;8.38;2.20;;;;;;;39.41;22.09;100074.05;1728358;81;21611;-68
2023/05/29 08:48:54;;;;;;;156.50;10.23;;;;;;;40.16;21.71;100075.16;1717922;81;21078;-68
2023/05/29 08:51:21;;;;;;;10.82;3.00;;;;;;;40.70;21.61;100071.84;1716344;81;21013;-69
2023/05/29 08:53:48;;;;;;;8.68;2.00;;;;;;;41.74;20.79;100069.92;1723660;81;21531;-68
2023/05/29 08:56:14;;;;;;;4.00;1.60;;;;;;;42.25;20.31;100075.50;1720563;81;20985;-68
2023/05/29 08:58:41;;;;;;;4.80;1.45;;;;;;;42.36;19.87;100079.92;1687089;83;21030;-65
2023/05/29 09:01:10;;;;;;;3.87;1.40;;;;;;;43.09;19.68;100075.98;1715910;81;21049;-64
2023/05/29 09:03:37;;;;;;;9.65;2.00;;;;;;;43.37;18.93;100070.97;1716035;81;20989;-64
2023/05/29 09:06:07;;;;;;;7.90;2.08;;;;;;;43.30;18.17;100073.48;1718094;81;21046;-67
2023/05/29 09:08:33;;;;;;;4.85;1.25;;;;;;;43.40;18.00;100075.34;1687970;83;21011;-67
2023/05/29 09:11:00;;;;;;;6.47;1.52;;;;;;;43.08;17.84;100079.84;1689068;82;20971;-67
2023/05/29 09:13:28;;;;;;;6.78;1.42;;;;;;;42.99;17.38;100077.38;1694180;82;21041;-67
2023/05/29 09:16:00;;;;;;;8.13;1.80;;;;;;;42.48;17.18;100079.08;1688632;83;21117;-68
2023/05/29 09:18:30;;;;;;;6.17;1.95;;;;;;;42.89;16.82;100080.99;1721099;81;21058;-67
2023/05/29 09:20:58;;;;;;;5.97;1.35;;;;;;;42.68;16.42;100078.79;1718398;81;21426;-67
2023/05/29 09:23:26;;;;;;;4.60;1.50;;;;;;;42.75;16.24;100078.00;1699055;81;21009;-68
2023/05/29 09:25:54;;;;;;;3.25;1.40;;;;;;;43.21;16.02;100069.64;1694944;82;21085;-67
2023/05/29 09:28:25;;;;;;;4.42;1.12;;;;;;;43.49;15.71;100070.89;1701498;82;21009;-67
2023/05/29 09:30:51;;;;;;;3.90;1.50;;;;;;;43.32;15.56;100075.37;1695573;82;21501;-67
2023/05/29 09:33:18;;;;;;;7.37;1.57;;;;;;;43.34;15.20;100070.42;1649464;82;21929;-67
2023/05/29 09:35:47;;;;;;;13.05;2.52;;;;;;;43.17;15.05;100067.20;1707918;82;21053;-68
2023/05/29 09:38:18;;;;;;;3.30;1.50;;;;;;;43.57;14.90;100068.14;1721388;81;21002;-68
2023/05/29 09:40:46;;;;;;;10.95;2.15;;;;;;;43.82;14.08;100071.85;1722055;81;21006;-68
2023/05/29 09:43:17;;;;;;;6.92;1.77;;;;;;;43.49;14.48;100082.45;1714509;81;21102;-68
2023/05/29 09:45:49;;;;;;;5.60;1.87;;;;;;;43.80;14.22;100078.44;1720717;81;20949;-68
2023/05/29 09:48:20;;;;;;;12.80;1.87;;;;;;;43.77;14.32;100070.77;1720636;81;21001;-68
2023/05/29 09:50:49;;;;;;;57.98;7.75;;;;;;;44.20;13.35;100068.30;1712472;81;21700;-68
2023/05/29 09:53:24;;;;;;;4.72;1.37;;;;;;;43.98;13.60;100074.80;1686491;82;21046;-68
2023/05/29 09:55:56;;;;;;;27.62;2.77;;;;;;;44.07;13.46;100079.95;1709508;82;21001;-65
2023/05/29 09:58:25;;;;;;;7.92;2.00;;;;;;;44.35;13.58;100081.13;1704635;81;21041;-66
2023/05/29 10:00:53;;;;;;;3.67;1.35;;;;;;;44.73;13.11;100077.19;1716956;81;20958;-66
2023/05/29 10:03:21;;;;;;;15.18;2.00;;;;;;;44.68;13.02;100083.59;1721422;81;22223;-66
2023/05/29 10:05:50;;;;;;;4.22;1.57;;;;;;;45.04;13.00;100081.86;1706811;82;20958;-64
2023/05/29 10:08:25;;;;;;;4.92;1.80;;;;;;;45.11;12.75;100083.69;1713324;81;21455;-64
2023/05/29 10:11:03;;;;;;;4.42;1.67;;;;;;;45.35;12.77;100081.52;1713802;81;21013;-66
2023/05/29 10:13:33;;;;;;;4.87;1.62;;;;;;;46.25;12.59;100082.45;1712924;80;21651;-65
2023/05/29 10:16:03;;;;;;;3.35;1.32;;;;;;;46.56;12.44;100081.95;1714326;81;22311;-65
2023/05/29 10:18:41;;;;;;;4.30;1.60;;;;;;;47.20;12.06;100084.34;1711553;81;21636;-68
2023/05/29 10:21:13;;;;;;;6.78;2.08;;;;;;;47.03;11.81;100079.95;1713272;81;21539;-68
2023/05/29 10:23:42;;;;;;;6.45;2.10;;;;;;;47.51;11.93;100074.86;1715465;81;21057;-69
2023/05/29 10:26:14;;;;;;;9.53;1.90;;;;;;;45.65;11.60;100073.95;1695157;81;21085;-68
2023/05/29 10:28:44;;;;;;;7.22;1.52;;;;;;;44.99;11.76;100069.52;1714616;81;21575;-68
2023/05/29 10:31:18;;;;;;;6.17;1.87;;;;;;;45.25;11.62;100074.19;1692958;81;21594;-68
2023/05/29 10:34:03;;;;;;;6.97;1.70;;;;;;;46.08;11.74;100076.67;1763188;78;21371;-68
2023/05/29 10:36:36;;;;;;;5.45;2.05;;;;;;;46.42;11.50;100075.83;1766865;78;21026;-66
2023/05/29 10:39:04;;;;;;;52.33;4.65;;;;;;;46.46;11.44;100073.84;1755979;78;21023;-67
2023/05/29 10:41:32;;;;;;;7.85;2.55;;;;;;;46.31;11.47;100078.50;1756548;79;21002;-67
2023/05/29 10:44:00;;;;;;;10.63;2.77;;;;;;;46.23;11.10;100079.73;1755015;79;21015;-64
2023/05/29 10:46:48;;;;;;;5.30;1.70;;;;;;;46.23;11.00;100070.88;1756776;79;21015;-65
2023/05/29 10:49:19;;;;;;;5.08;2.45;;;;;;;46.24;11.18;100077.22;1758411;80;21701;-66
2023/05/29 10:51:45;;;;;;;8.23;2.15;;;;;;;46.99;11.10;100076.18;1761546;79;21003;-66
2023/05/29 10:54:13;;;;;;;12.30;2.30;;;;;;;46.68;10.82;100072.62;1753235;79;20956;-64
2023/05/29 10:56:43;;;;;;;6.70;2.00;;;;;;;46.15;10.80;100066.05;1758224;79;21025;-64
2023/05/29 10:59:12;;;;;;;5.28;2.10;;;;;;;45.55;10.76;100067.48;1757171;79;21063;-65
2023/05/29 11:01:39;;;;;;;3.62;1.82;;;;;;;44.47;10.65;100062.86;1755322;79;20947;-67
2023/05/29 11:04:21;;;;;;;7.62;1.72;;;;;;;42.37;10.74;100065.09;1755510;79;21555;-65
2023/05/29 11:06:48;;;;;;;7.10;1.80;;;;;;;41.65;11.21;100066.04;1758809;80;21012;-64
2023/05/29 11:09:36;;;;;;;6.45;1.70;;;;;;;41.78;11.13;100062.79;1754556;80;21057;-65
2023/05/29 11:12:25;;;;;;;12.40;1.90;;;;;;;41.97;11.52;100063.95;1759564;79;21071;-67
2023/05/29 11:15:06;;;;;;;7.62;2.60;;;;;;;42.20;11.20;100059.85;1760612;79;21067;-67
2023/05/29 11:17:39;;;;;;;10.90;2.60;;;;;;;41.84;11.51;100064.44;1757159;79;21029;-66
2023/05/29 11:20:09;;;;;;;6.28;1.50;;;;;;;41.61;11.49;100064.39;1755217;79;21007;-67
2023/05/29 11:22:51;;;;;;;4.65;1.90;;;;;;;41.33;11.48;100065.64;1759830;80;21002;-67
2023/05/29 11:25:17;;;;;;;7.95;1.80;;;;;;;41.07;11.75;100055.94;1758109;79;21070;-67
2023/05/29 11:27:44;;;;;;;5.45;1.60;;;;;;;39.66;11.71;100053.87;1755863;79;21044;-67